Time;durP1;ratioP1;P1;durP2;ratioP2;P2;SDS_P1;SDS_P2;PMS_P1;PMS_P2;Temp;Humidity;BMP_temperature;BMP_pressure;BME280_temperature;BME280_humidity;BME280_pressure;Samples;Min_cycle;Max_cycle;Signal;HPM_P1;HPM_P2
2024/03/13 00:03:59;;;;;;;34.40;21.17;;;5.40;99.90;;;;;;5663439;24;20376;-87
2024/03/13 00:24:16;;;;;;;35.07;20.53;;;5.40;99.90;;;;;;5641371;24;20616;-88
2024/03/13 00:45:00;;;;;;;30.47;19.40;;;5.40;99.90;;;;;;5704314;24;20629;-85
2024/03/13 01:15:27;;;;;;;35.47;20.57;;;5.50;99.90;;;;;;5749329;24;20420;-87
2024/03/13 01:40:25;;;;;;;39.07;23.73;;;5.30;99.90;;;;;;5820524;23;20581;-86
2024/03/13 02:05:27;;;;;;;37.47;23.07;;;5.10;99.90;;;;;;5704210;24;20285;-89
2024/03/13 02:26:24;;;;;;;36.37;23.63;;;5.00;99.90;;;;;;5700794;24;20179;-87
2024/03/13 02:56:40;;;;;;;38.03;22.70;;;5.00;99.90;;;;;;5670342;24;20316;-86
2024/03/13 03:17:06;;;;;;;38.37;24.10;;;5.00;99.90;;;;;;5756954;24;20183;-86
2024/03/13 03:42:09;;;;;;;33.23;22.90;;;4.90;99.90;;;;;;5575798;24;20751;-87
2024/03/13 04:43:12;;;;;;;38.23;21.37;;;4.80;99.90;;;;;;5796664;24;20307;-86
2024/03/13 05:09:01;;;;;;;41.47;20.97;;;4.70;99.90;;;;;;5728290;24;20205;-87
2024/03/13 05:13:09;;;;;;;41.30;20.60;;;4.70;99.90;;;;;;5695263;24;20387;-87
2024/03/13 05:20:36;;;;;;;37.30;20.37;;;4.70;99.90;;;;;;5778781;24;20248;-87
2024/03/13 05:37:23;;;;;;;42.07;22.73;;;4.70;99.90;;;;;;5581112;25;20199;-89
2024/03/13 06:10:32;;;;;;;42.37;21.70;;;4.70;99.90;;;;;;5559569;25;20598;-88
2024/03/13 06:56:48;;;;;;;42.20;22.80;;;4.80;99.90;;;;;;5646196;24;20186;-86
2024/03/13 07:26:52;;;;;;;45.70;24.30;;;5.10;99.90;;;;;;5792121;24;20507;-86
2024/03/13 07:52:04;;;;;;;42.73;23.80;;;5.20;99.90;;;;;;5693894;24;20322;-86
2024/03/13 08:13:00;;;;;;;35.30;21.13;;;5.30;99.90;;;;;;5867669;23;20282;-85
2024/03/13 08:17:20;;;;;;;36.47;22.00;;;5.30;99.90;;;;;;5780610;24;20395;-86
2024/03/13 08:53:29;;;;;;;33.47;19.70;;;5.50;99.90;;;;;;5906206;23;21112;-86
2024/03/13 08:57:55;;;;;;;36.93;19.23;;;5.40;99.90;;;;;;5844573;23;20448;-86
2024/03/13 09:18:42;;;;;;;33.93;19.00;;;5.40;99.90;;;;;;5859129;23;20196;-86
2024/03/13 09:39:11;;;;;;;41.50;23.17;;;5.50;99.90;;;;;;5799219;23;20203;-87
2024/03/13 10:09:36;;;;;;;32.70;18.33;;;5.80;99.90;;;;;;5841535;23;20333;-85
2024/03/13 10:39:48;;;;;;;26.47;16.57;;;6.40;99.90;;;;;;5898115;23;20202;-86
2024/03/13 11:09:50;;;;;;;20.23;14.07;;;6.50;99.90;;;;;;5628607;24;20243;-86
2024/03/13 11:25:41;;;;;;;18.20;12.87;;;7.20;99.90;;;;;;5698122;24;20639;-84
2024/03/13 11:55:49;;;;;;;18.40;13.20;;;6.50;99.90;;;;;;5832439;24;20454;-86
2024/03/13 12:21:25;;;;;;;36.63;20.50;;;6.20;99.90;;;;;;5997784;23;20168;-85
2024/03/13 12:41:29;;;;;;;41.90;25.07;;;6.00;99.90;;;;;;5715630;24;20597;-83
2024/03/13 13:21:50;;;;;;;34.00;20.50;;;5.70;99.90;;;;;;5701109;24;20353;-85
2024/03/13 13:52:44;;;;;;;32.87;19.93;;;5.80;99.90;;;;;;5894760;23;20571;-83
2024/03/13 14:13:08;;;;;;;35.33;20.70;;;5.70;99.90;;;;;;5948059;23;20161;-84
2024/03/13 14:37:48;;;;;;;32.33;21.03;;;5.80;99.90;;;;;;5643953;24;20548;-85
2024/03/13 14:58:43;;;;;;;34.97;21.43;;;5.50;99.90;;;;;;5736238;24;20425;-86
2024/03/13 15:19:06;;;;;;;35.93;20.80;;;5.40;99.90;;;;;;5801907;24;20464;-86
2024/03/13 15:39:26;;;;;;;34.43;20.50;;;5.20;99.90;;;;;;5744488;24;20556;-85
2024/03/13 15:43:44;;;;;;;30.90;19.57;;;5.30;99.90;;;;;;5666130;24;20633;-87
2024/03/13 16:04:40;;;;;;;29.67;19.47;;;5.10;99.90;;;;;;5824736;24;20357;-88
2024/03/13 16:29:47;;;;;;;36.70;21.93;;;5.10;99.90;;;;;;5824723;24;20412;-86
2024/03/13 17:41:00;;;;;;;38.50;23.33;;;5.20;99.90;;;;;;5872108;23;20213;-87
2024/03/13 18:26:33;;;;;;;50.30;27.87;;;5.20;99.90;;;;;;5989991;23;20458;-87
2024/03/13 18:51:54;;;;;;;45.97;28.40;;;5.20;99.90;;;;;;5928450;23;20162;-88
2024/03/13 19:17:15;;;;;;;46.10;28.97;;;5.20;99.90;;;;;;5933884;23;20180;-88
2024/03/13 19:47:48;;;;;;;48.53;29.77;;;5.20;99.90;;;;;;5916979;23;20929;-87
2024/03/13 20:13:00;;;;;;;49.30;28.97;;;5.10;99.90;;;;;;5727332;24;20204;-88
2024/03/13 20:33:10;;;;;;;45.70;29.00;;;5.10;99.90;;;;;;5608091;24;20666;-87
2024/03/13 20:58:30;;;;;;;45.27;28.50;;;5.00;99.90;;;;;;5745085;24;20703;-88
2024/03/13 21:23:34;;;;;;;46.87;29.37;;;5.00;99.90;;;;;;5730867;24;20594;-87
2024/03/13 21:49:29;;;;;;;46.00;28.40;;;4.90;99.90;;;;;;5719042;24;20642;-86
2024/03/13 22:09:53;;;;;;;48.63;30.57;;;4.70;99.90;;;;;;5784841;24;20272;-86
2024/03/13 22:29:55;;;;;;;59.00;34.90;;;5.00;99.90;;;;;;5810272;24;20194;-88
2024/03/13 22:55:15;;;;;;;64.30;36.70;;;4.80;99.90;;;;;;5763668;24;20186;-87
2024/03/13 23:15:45;;;;;;;65.70;39.00;;;4.80;99.90;;;;;;5867886;23;20628;-86
2024/03/13 23:36:10;;;;;;;61.90;37.70;;;4.80;99.90;;;;;;5759271;24;20192;-88
2024/03/13 23:56:15;;;;;;;63.93;39.53;;;4.80;99.90;;;;;;5637979;24;20757;-88
